Time;durP1;ratioP1;P1;durP2;ratioP2;P2;SDS_P1;SDS_P2;PMS_P1;PMS_P2;Temp;Humidity;BMP_temperature;BMP_pressure;BME280_temperature;BME280_humidity;BME280_pressure;Samples;Min_cycle;Max_cycle;Signal;HPM_P1;HPM_P2
2023/04/08 00:01:34;;;;;;;9.32;6.18;;;5.60;99.90;;;6.58;95.28;101408.31;4863167;29;20394;-74
2023/04/08 00:03:59;;;;;;;9.75;6.10;;;5.60;99.90;;;6.58;95.61;101404.75;4846148;29;20057;-75
2023/04/08 00:06:26;;;;;;;9.57;5.85;;;5.60;99.90;;;6.53;95.73;101404.41;4871353;29;20041;-75
2023/04/08 00:08:51;;;;;;;9.00;5.95;;;5.60;99.90;;;6.65;96.03;101407.63;4861060;29;20498;-75
2023/04/08 00:11:17;;;;;;;11.45;6.22;;;5.60;99.90;;;6.54;96.15;101403.41;4871804;29;20048;-75
2023/04/08 00:13:43;;;;;;;8.95;6.22;;;5.60;99.90;;;6.57;96.30;101403.06;4869160;29;20049;-75
2023/04/08 00:16:08;;;;;;;9.45;6.55;;;5.60;99.90;;;6.56;96.02;101404.06;4873931;29;20041;-75
2023/04/08 00:18:36;;;;;;;8.45;5.70;;;5.60;99.90;;;6.56;96.43;101407.66;4868541;29;20050;-75
2023/04/08 00:21:03;;;;;;;9.88;6.35;;;5.60;99.90;;;6.55;96.61;101415.94;4874462;29;20101;-75
2023/04/08 00:23:29;;;;;;;11.00;6.35;;;5.60;99.90;;;6.52;96.95;101398.16;4878735;29;20053;-75
2023/04/08 00:25:54;;;;;;;11.13;6.80;;;5.60;99.90;;;6.61;96.35;101412.53;4872109;29;20401;-75
2023/04/08 00:28:20;;;;;;;11.88;6.60;;;5.60;99.90;;;6.57;96.47;101405.75;4871373;29;20060;-75
2023/04/08 00:30:46;;;;;;;10.27;6.57;;;5.60;99.90;;;6.60;96.76;101410.84;4861755;29;20057;-75
2023/04/08 00:33:12;;;;;;;11.57;6.63;;;5.60;99.90;;;6.53;96.55;101408.00;4834975;29;20048;-75
2023/04/08 00:35:37;;;;;;;11.18;6.85;;;5.60;99.90;;;6.41;97.53;101407.50;4862347;29;20025;-75
2023/04/08 00:38:06;;;;;;;9.50;6.47;;;5.60;99.90;;;6.45;97.94;101419.69;4866341;29;20180;-75
2023/04/08 00:40:33;;;;;;;11.48;7.18;;;5.60;99.90;;;6.32;97.91;101403.06;4866696;29;20025;-75
2023/04/08 00:42:59;;;;;;;11.70;7.28;;;5.60;99.90;;;6.43;98.33;101401.88;4877851;29;20084;-75
2023/04/08 00:45:25;;;;;;;11.48;7.07;;;5.60;99.90;;;6.33;99.11;101405.63;4849500;29;20042;-75
2023/04/08 00:47:51;;;;;;;11.63;7.25;;;5.50;99.90;;;6.39;100.00;101411.38;4840405;29;20033;-75
2023/04/08 00:50:18;;;;;;;12.77;7.60;;;5.50;99.90;;;6.25;100.00;101405.63;4850964;29;20033;-75
2023/04/08 00:52:44;;;;;;;11.48;6.82;;;5.50;99.90;;;6.23;100.00;101398.69;4875058;29;20041;-75
2023/04/08 00:55:10;;;;;;;12.32;7.97;;;5.40;99.90;;;6.24;100.00;101400.38;4871416;29;20041;-74
2023/04/08 00:57:36;;;;;;;13.18;7.90;;;5.40;99.90;;;6.13;100.00;101394.28;4867657;29;20090;-75
2023/04/08 01:00:04;;;;;;;14.20;7.30;;;5.40;99.90;;;6.29;100.00;101406.13;4878060;29;20493;-74
2023/04/08 01:03:00;;;;;;;13.63;7.65;;;5.40;99.90;;;6.22;100.00;101397.81;4869966;29;20479;-75
2023/04/08 01:06:14;;;;;;;11.50;7.57;;;5.40;99.90;;;6.27;100.00;101405.47;4844511;29;20065;-75
2023/04/08 01:08:42;;;;;;;11.82;7.57;;;5.40;99.90;;;6.13;100.00;101405.13;4848338;29;20101;-75
2023/04/08 01:11:11;;;;;;;14.10;8.23;;;5.40;99.90;;;6.18;100.00;101410.88;4865286;29;20037;-75
2023/04/08 01:13:42;;;;;;;12.18;7.35;;;5.30;99.90;;;6.14;100.00;101416.81;4861130;29;20049;-75
2023/04/08 01:16:13;;;;;;;14.18;8.23;;;5.30;99.90;;;6.17;100.00;101416.47;4867535;29;20501;-75
2023/04/08 01:18:42;;;;;;;11.38;7.65;;;5.30;99.90;;;6.09;100.00;101400.22;4875191;29;20073;-75
2023/04/08 01:21:11;;;;;;;12.13;7.75;;;5.30;99.90;;;6.18;100.00;101410.03;4861121;29;20405;-75
2023/04/08 01:24:16;;;;;;;13.15;7.65;;;5.30;99.90;;;6.11;100.00;101401.75;4852003;29;20542;-74
2023/04/08 01:26:43;;;;;;;12.93;7.63;;;5.30;99.90;;;5.90;100.00;101407.59;4874254;29;20044;-75
2023/04/08 01:29:11;;;;;;;12.38;7.85;;;5.30;99.90;;;5.99;100.00;101400.34;4877540;29;20047;-75
2023/04/08 01:31:39;;;;;;;13.77;7.60;;;5.40;99.90;;;6.03;100.00;101412.56;4877377;29;20058;-75
2023/04/08 01:34:07;;;;;;;12.77;7.50;;;5.40;99.90;;;6.07;100.00;101407.66;4832029;29;20557;-75
2023/04/08 01:36:36;;;;;;;11.48;7.38;;;5.40;99.90;;;6.07;100.00;101386.00;4875466;29;20025;-75
2023/04/08 01:39:04;;;;;;;11.93;7.70;;;5.40;99.90;;;6.09;100.00;101395.63;4891720;29;20045;-74
2023/04/08 01:41:34;;;;;;;15.98;8.30;;;5.40;99.90;;;5.93;100.00;101392.88;4874049;29;20029;-75
2023/04/08 01:44:01;;;;;;;12.25;7.97;;;5.40;99.90;;;5.84;100.00;101392.88;4875850;29;20049;-75
2023/04/08 01:46:31;;;;;;;14.50;7.68;;;5.50;99.90;;;5.75;100.00;101385.75;4881126;29;20056;-75
2023/04/08 01:48:59;;;;;;;13.85;7.60;;;5.50;99.90;;;5.67;100.00;101391.16;4886371;29;20041;-75
2023/04/08 01:51:27;;;;;;;14.45;7.30;;;5.50;99.90;;;5.63;100.00;101390.63;4875434;29;20105;-75
2023/04/08 01:53:54;;;;;;;12.82;8.23;;;5.50;99.90;;;5.58;100.00;101368.63;4872222;29;20077;-75
2023/04/08 01:56:22;;;;;;;14.32;7.75;;;5.40;99.90;;;5.56;100.00;101376.91;4883905;29;20041;-75
2023/04/08 01:58:54;;;;;;;15.43;7.82;;;5.40;99.90;;;5.67;100.00;101381.16;4866268;29;20061;-75
2023/04/08 02:01:25;;;;;;;14.13;8.15;;;5.40;99.90;;;5.66;100.00;101378.63;4869761;29;20048;-74
2023/04/08 02:03:56;;;;;;;12.70;7.68;;;5.40;99.90;;;5.61;100.00;101396.22;4887625;29;20092;-75
2023/04/08 02:06:26;;;;;;;12.63;7.72;;;5.40;99.90;;;5.69;100.00;101370.19;4881295;29;20110;-75
2023/04/08 02:08:53;;;;;;;12.00;7.47;;;5.40;99.90;;;5.73;100.00;101395.91;4853352;29;20041;-76
2023/04/08 02:11:20;;;;;;;13.88;8.23;;;5.40;99.90;;;5.68;100.00;101392.84;4859819;29;20038;-75
2023/04/08 02:13:46;;;;;;;14.02;8.15;;;5.40;99.90;;;5.70;100.00;101396.22;4888581;29;20402;-74
2023/04/08 02:16:29;;;;;;;13.85;7.60;;;5.40;99.90;;;5.67;100.00;101391.16;4880976;29;20049;-75
2023/04/08 02:19:13;;;;;;;12.93;7.68;;;5.40;99.90;;;5.55;100.00;101394.16;4871300;29;20104;-74
2023/04/08 02:21:49;;;;;;;10.90;6.65;;;5.40;99.90;;;5.55;100.00;101391.44;4857363;29;20112;-75
2023/04/08 02:24:17;;;;;;;11.20;7.00;;;5.40;99.90;;;5.68;100.00;101395.56;4862238;29;20486;-74
2023/04/08 02:26:46;;;;;;;13.10;7.53;;;5.40;99.90;;;5.43;100.00;101360.31;4851810;29;20064;-75
2023/04/08 02:29:15;;;;;;;14.60;7.60;;;5.40;99.90;;;5.55;100.00;101383.34;4879109;29;20474;-76
2023/04/08 02:31:43;;;;;;;16.35;8.55;;;5.40;99.90;;;5.69;100.00;101397.25;4851011;29;20064;-74
2023/04/08 02:34:10;;;;;;;13.02;8.05;;;5.40;99.90;;;5.42;100.00;101391.09;4878556;29;20489;-75
2023/04/08 02:36:37;;;;;;;13.27;7.93;;;5.40;99.90;;;5.45;100.00;101375.38;4866646;29;20033;-75
2023/04/08 02:39:03;;;;;;;13.25;7.53;;;5.40;99.90;;;5.47;100.00;101397.72;4856392;29;20367;-75
2023/04/08 02:41:30;;;;;;;13.82;7.72;;;5.30;99.90;;;5.63;100.00;101392.50;4848551;29;20041;-74
2023/04/08 02:43:56;;;;;;;14.68;8.20;;;5.40;99.90;;;5.54;100.00;101397.03;4848824;29;20042;-74
2023/04/08 02:46:22;;;;;;;12.35;7.57;;;5.40;99.90;;;5.60;100.00;101401.78;4860412;29;20036;-75
2023/04/08 02:48:48;;;;;;;14.75;7.78;;;5.40;99.90;;;5.62;100.00;101397.06;4860150;29;20472;-74
2023/04/08 02:51:14;;;;;;;15.23;8.73;;;5.40;99.90;;;5.70;100.00;101405.22;4845803;29;20025;-74
2023/04/08 02:53:40;;;;;;;12.73;7.65;;;5.40;99.90;;;5.65;100.00;101412.13;4863859;29;20045;-74
2023/04/08 02:56:09;;;;;;;12.88;7.30;;;5.40;99.90;;;5.55;100.00;101407.69;4869825;29;20101;-74
2023/04/08 02:58:35;;;;;;;13.38;7.80;;;5.40;99.90;;;5.56;100.00;101398.56;4872509;29;20033;-74
2023/04/08 03:01:01;;;;;;;16.58;8.10;;;5.40;99.90;;;5.49;100.00;101396.69;4876296;29;20080;-75
2023/04/08 03:03:28;;;;;;;14.80;7.88;;;5.40;99.90;;;5.61;100.00;101409.75;4874126;29;20047;-74
2023/04/08 03:05:55;;;;;;;16.60;7.37;;;5.40;99.90;;;5.57;100.00;101411.13;4876588;29;20082;-75
2023/04/08 03:08:22;;;;;;;14.30;8.18;;;5.40;99.90;;;5.70;100.00;101420.59;4867871;29;20300;-75
2023/04/08 03:10:49;;;;;;;15.68;7.82;;;5.40;99.90;;;5.74;100.00;101417.41;4867748;29;20045;-74
2023/04/08 03:13:16;;;;;;;15.40;8.15;;;5.30;99.90;;;5.71;100.00;101414.16;4873766;29;20041;-74
2023/04/08 03:15:42;;;;;;;12.90;7.43;;;5.40;99.90;;;5.79;100.00;101421.47;4869183;29;20069;-75
2023/04/08 03:18:08;;;;;;;15.35;8.25;;;5.40;99.90;;;5.79;100.00;101421.47;4875534;29;20044;-75
2023/04/08 03:20:34;;;;;;;13.70;7.65;;;5.40;99.90;;;5.82;100.00;101413.84;4877110;29;20048;-74
2023/04/08 03:23:00;;;;;;;14.80;7.53;;;5.40;99.90;;;5.92;100.00;101410.16;4836042;29;20102;-75
2023/04/08 03:25:28;;;;;;;14.25;7.78;;;5.50;99.90;;;6.04;100.00;101427.78;4873153;29;20396;-75
2023/04/08 03:27:54;;;;;;;16.63;8.65;;;5.40;99.90;;;6.04;100.00;101417.81;4864779;29;20393;-75
2023/04/08 03:30:20;;;;;;;15.20;8.23;;;5.40;99.90;;;6.25;100.00;101437.31;4866542;29;20550;-75
2023/04/08 03:32:46;;;;;;;16.00;8.52;;;5.40;99.90;;;6.03;100.00;101409.84;4838668;29;20042;-75
2023/04/08 03:35:12;;;;;;;15.30;9.13;;;5.40;99.90;;;6.06;100.00;101430.34;4835301;29;20045;-75
2023/04/08 03:37:37;;;;;;;18.35;9.70;;;5.40;99.90;;;6.23;100.00;101431.19;4837838;29;20149;-75
2023/04/08 03:40:05;;;;;;;19.27;9.80;;;5.40;99.90;;;6.27;100.00;101424.41;4828868;29;20364;-75
2023/04/08 03:42:31;;;;;;;18.70;9.45;;;5.40;99.90;;;6.28;100.00;101420.69;4838405;29;20049;-75
2023/04/08 03:44:57;;;;;;;18.38;9.93;;;5.40;99.90;;;6.29;100.00;101420.53;4836162;29;20046;-75
2023/04/08 03:47:23;;;;;;;22.38;10.55;;;5.40;99.90;;;6.16;100.00;101422.91;4841779;29;20037;-75
2023/04/08 03:49:48;;;;;;;19.92;9.65;;;5.50;99.90;;;5.88;100.00;101413.19;4842580;29;20037;-75
2023/04/08 03:52:14;;;;;;;18.48;10.13;;;5.50;99.90;;;5.96;100.00;101408.81;4838130;29;20056;-76
2023/04/08 03:54:40;;;;;;;18.33;10.27;;;5.50;99.90;;;6.09;100.00;101430.84;4832550;29;20495;-75
2023/04/08 03:57:05;;;;;;;18.70;10.95;;;5.50;99.90;;;6.22;100.00;101426.81;4836267;29;20102;-75
2023/04/08 03:59:32;;;;;;;17.92;9.57;;;5.50;99.90;;;6.03;100.00;101421.53;4842677;29;20426;-76
2023/04/08 04:01:59;;;;;;;18.98;10.98;;;5.50;99.90;;;5.84;100.00;101408.28;4836249;29;20038;-75
2023/04/08 04:04:25;;;;;;;21.55;10.98;;;5.50;99.90;;;5.95;100.00;101435.03;4842784;29;20038;-75
2023/04/08 04:06:51;;;;;;;26.55;11.73;;;5.50;99.90;;;5.88;100.00;101424.03;4827354;29;20064;-75
2023/04/08 04:09:17;;;;;;;23.90;11.00;;;5.50;99.90;;;5.95;100.00;101416.06;4837705;29;20515;-75
2023/04/08 04:11:43;;;;;;;22.52;11.18;;;5.50;99.90;;;5.78;100.00;101431.44;4821173;29;20432;-76
2023/04/08 04:14:08;;;;;;;22.10;11.07;;;5.40;99.90;;;5.82;100.00;101430.09;4836192;29;20081;-75
2023/04/08 04:16:34;;;;;;;24.30;11.63;;;5.50;99.90;;;5.86;100.00;101430.63;4832658;29;20078;-75
2023/04/08 04:19:00;;;;;;;26.23;12.00;;;5.50;99.90;;;6.02;100.00;101436.09;4838874;29;20070;-76
2023/04/08 04:21:26;;;;;;;20.88;11.73;;;5.50;99.90;;;5.74;100.00;101416.53;4829183;29;20507;-75
2023/04/08 04:23:52;;;;;;;23.35;12.10;;;5.50;99.90;;;6.09;100.00;101441.69;4838104;29;20095;-75
2023/04/08 04:26:18;;;;;;;23.42;12.52;;;5.50;99.90;;;6.15;100.00;101454.56;4842110;29;20049;-75
2023/04/08 04:28:43;;;;;;;23.08;12.07;;;5.40;99.90;;;6.00;100.00;101458.91;4836363;29;20039;-75
2023/04/08 04:31:21;;;;;;;25.35;12.93;;;5.50;99.90;;;6.02;100.00;101459.63;4825011;29;20054;-75
2023/04/08 04:33:48;;;;;;;27.27;11.55;;;5.50;99.90;;;6.12;100.00;101452.22;4833028;29;20462;-75
2023/04/08 04:36:14;;;;;;;29.40;12.27;;;5.50;99.90;;;6.09;100.00;101463.34;4828848;29;20475;-75
2023/04/08 04:38:42;;;;;;;25.80;13.00;;;5.50;99.90;;;5.99;100.00;101435.56;4831772;29;20509;-75
2023/04/08 04:41:08;;;;;;;25.13;13.32;;;5.50;99.90;;;6.01;100.00;101464.22;4849047;29;20453;-73
2023/04/08 04:43:34;;;;;;;26.63;13.07;;;5.50;99.90;;;6.02;100.00;101465.91;4847464;29;20137;-77
2023/04/08 04:46:01;;;;;;;28.00;13.25;;;5.50;99.90;;;6.09;100.00;101455.22;4848346;29;20049;-73
2023/04/08 04:48:26;;;;;;;28.90;13.68;;;5.50;99.90;;;5.75;100.00;101461.56;4861579;29;20037;-76
2023/04/08 04:50:58;;;;;;;30.05;13.75;;;5.50;99.90;;;5.90;100.00;101451.78;4845519;29;20048;-76
2023/04/08 04:53:24;;;;;;;28.33;13.90;;;5.50;99.90;;;5.94;100.00;101467.72;4849265;29;20372;-76
2023/04/08 04:55:50;;;;;;;27.48;14.10;;;5.50;99.90;;;6.10;100.00;101473.19;4837645;29;20108;-74
2023/04/08 04:58:17;;;;;;;27.15;14.32;;;5.50;99.90;;;5.99;100.00;101462.63;4836964;29;20057;-76
2023/04/08 05:00:42;;;;;;;31.00;14.50;;;5.50;99.90;;;5.95;100.00;101458.56;4840863;29;20037;-74
2023/04/08 05:03:08;;;;;;;32.63;14.23;;;5.50;99.90;;;5.97;100.00;101480.91;4832691;29;20065;-77
2023/04/08 05:05:34;;;;;;;28.20;14.63;;;5.50;99.90;;;6.12;100.00;101479.31;4834895;29;20038;-76
2023/04/08 05:08:00;;;;;;;29.00;14.35;;;5.50;99.90;;;6.09;100.00;101479.59;4835286;29;20046;-75
2023/04/08 05:10:26;;;;;;;29.20;14.43;;;5.50;99.90;;;6.22;100.00;101483.72;4839743;29;20036;-75
2023/04/08 05:12:51;;;;;;;33.15;15.73;;;5.50;99.90;;;6.21;100.00;101487.44;4861040;29;20046;-75
2023/04/08 05:15:17;;;;;;;29.23;14.20;;;5.50;99.90;;;6.17;100.00;101490.47;4847144;29;20065;-74
2023/04/08 05:17:43;;;;;;;27.58;14.57;;;5.50;99.90;;;6.21;100.00;101503.69;4849660;29;20550;-74
2023/04/08 05:20:09;;;;;;;29.90;15.50;;;5.60;99.90;;;6.41;100.00;101496.94;4862300;29;20041;-75
2023/04/08 05:22:35;;;;;;;31.63;15.13;;;5.60;99.90;;;6.22;100.00;101471.00;4849027;29;20391;-75
2023/04/08 05:25:01;;;;;;;29.42;14.65;;;5.60;99.90;;;6.32;100.00;101477.13;4847133;29;20053;-75
2023/04/08 05:27:26;;;;;;;32.03;15.07;;;5.60;99.90;;;6.48;100.00;101499.81;4846809;29;20038;-74
2023/04/08 05:29:52;;;;;;;29.67;14.45;;;5.60;99.90;;;6.38;100.00;101489.16;4845067;29;20050;-75
2023/04/08 05:32:18;;;;;;;33.75;15.45;;;5.60;99.90;;;6.40;100.00;101497.97;4877577;29;20048;-74
2023/04/08 05:34:44;;;;;;;29.10;14.20;;;5.60;99.90;;;6.12;100.00;101473.03;4858719;29;20033;-75
2023/04/08 05:37:10;;;;;;;29.27;14.98;;;5.70;99.90;;;5.98;100.00;101477.19;4870383;29;20508;-74
2023/04/08 05:39:36;;;;;;;24.95;13.70;;;5.70;99.90;;;6.40;100.00;101502.53;4846476;29;20414;-74
2023/04/08 05:42:02;;;;;;;25.92;13.38;;;5.70;99.90;;;6.31;100.00;101496.25;4868909;29;20056;-75
2023/04/08 05:44:28;;;;;;;27.98;14.27;;;5.70;99.90;;;6.61;100.00;101507.44;4848186;29;20042;-75
2023/04/08 05:46:54;;;;;;;26.50;13.40;;;5.70;99.90;;;6.54;100.00;101506.44;4882878;29;20041;-77
2023/04/08 05:49:20;;;;;;;25.13;13.75;;;5.70;99.90;;;6.53;100.00;101508.31;4877187;29;20041;-76
2023/04/08 05:51:46;;;;;;;24.35;13.35;;;5.80;99.90;;;6.56;100.00;101501.69;4862265;29;20037;-75
2023/04/08 05:54:12;;;;;;;26.70;13.60;;;5.80;99.90;;;6.59;100.00;101514.88;4872178;29;20045;-73
2023/04/08 05:56:37;;;;;;;27.70;14.15;;;5.80;99.90;;;6.70;100.00;101520.00;4873451;29;20486;-73
2023/04/08 05:59:03;;;;;;;26.35;13.98;;;5.90;99.90;;;6.59;100.00;101523.88;4875032;29;20060;-74
2023/04/08 06:01:29;;;;;;;24.02;12.27;;;5.90;99.90;;;6.50;100.00;101502.34;4873603;29;20602;-73
2023/04/08 06:03:55;;;;;;;27.35;14.30;;;5.90;99.90;;;6.61;100.00;101521.00;4849388;29;20037;-73
2023/04/08 06:06:22;;;;;;;25.35;13.60;;;6.00;99.90;;;6.57;100.00;101525.94;4867343;29;20064;-73
2023/04/08 06:08:47;;;;;;;22.13;12.57;;;5.90;99.90;;;6.48;100.00;101522.34;4864959;29;20101;-73
2023/04/08 06:11:13;;;;;;;22.95;12.25;;;6.00;99.90;;;6.48;100.00;101508.81;4877702;29;20120;-73
2023/04/08 06:13:39;;;;;;;21.83;12.65;;;5.90;99.90;;;6.81;100.00;101531.50;4870946;29;20041;-74
2023/04/08 06:16:14;;;;;;;25.50;13.15;;;6.00;99.90;;;6.97;100.00;101545.06;4860331;29;20050;-73
2023/04/08 06:18:40;;;;;;;25.60;12.38;;;6.10;99.90;;;7.07;100.00;101534.03;4868585;29;20443;-73
2023/04/08 06:21:07;;;;;;;23.25;13.20;;;6.10;99.90;;;7.17;100.00;101536.56;4867705;29;20513;-76
2023/04/08 06:23:33;;;;;;;22.67;12.55;;;6.20;99.90;;;6.87;100.00;101469.28;4875036;29;20037;-73
2023/04/08 06:25:58;;;;;;;22.30;12.43;;;6.30;99.90;;;7.32;100.00;101540.25;4874285;29;20501;-73
2023/04/08 06:28:24;;;;;;;23.15;12.10;;;6.40;99.90;;;7.03;100.00;101530.81;4874551;29;20389;-74
2023/04/08 06:30:50;;;;;;;24.92;13.10;;;6.40;99.90;;;7.10;100.00;101547.25;4876874;29;20458;-74
2023/04/08 06:33:16;;;;;;;24.13;12.75;;;6.50;99.90;;;7.36;100.00;101535.34;4865506;29;20121;-74
2023/04/08 06:35:41;;;;;;;22.60;12.35;;;6.50;99.90;;;7.38;100.00;101538.72;4869572;29;20121;-74
2023/04/08 06:38:07;;;;;;;19.23;11.52;;;6.60;99.90;;;7.39;100.00;101544.97;4869896;29;20110;-74
2023/04/08 06:40:33;;;;;;;21.20;11.98;;;6.70;99.90;;;7.65;100.00;101550.19;4875091;29;20040;-73
2023/04/08 06:42:59;;;;;;;19.17;12.18;;;6.90;99.90;;;7.82;100.00;101550.09;4872862;29;20405;-74
2023/04/08 06:45:43;;;;;;;22.27;11.57;;;7.00;99.90;;;8.05;100.00;101551.00;4849736;29;20117;-74
2023/04/08 06:48:08;;;;;;;19.52;11.02;;;7.10;99.90;;;7.90;100.00;101553.63;4876512;29;20060;-73
2023/04/08 06:50:34;;;;;;;19.08;11.43;;;7.20;99.90;;;7.88;100.00;101555.69;4849043;29;20038;-73
2023/04/08 06:53:00;;;;;;;21.90;11.75;;;7.20;99.90;;;7.78;100.00;101555.06;4835511;29;20123;-77
2023/04/08 06:55:26;;;;;;;21.58;11.98;;;7.10;99.90;;;7.51;100.00;101568.03;4876236;29;20033;-73
2023/04/08 06:57:52;;;;;;;21.70;11.48;;;7.00;99.90;;;7.57;100.00;101571.94;4873289;29;20095;-75
2023/04/08 07:00:18;;;;;;;21.85;12.45;;;6.90;99.90;;;7.71;100.00;101573.91;4866008;29;20045;-75
2023/04/08 07:02:44;;;;;;;20.55;11.65;;;6.90;99.90;;;7.31;100.00;101570.31;4867881;29;20085;-75
2023/04/08 07:05:10;;;;;;;21.48;12.07;;;6.80;99.90;;;7.57;100.00;101580.91;4868176;29;20037;-74
2023/04/08 07:07:36;;;;;;;22.10;12.70;;;6.80;99.90;;;7.47;100.00;101553.97;4869556;29;20397;-76
2023/04/08 07:10:02;;;;;;;20.88;12.40;;;6.90;99.90;;;7.68;100.00;101570.69;4854029;29;20114;-74
2023/04/08 07:12:27;;;;;;;19.52;11.40;;;6.90;99.90;;;7.66;100.00;101573.59;4873668;29;20452;-73
2023/04/08 07:14:54;;;;;;;21.92;12.30;;;7.00;99.90;;;7.72;100.00;101575.59;4871305;29;20041;-74
2023/04/08 07:17:20;;;;;;;25.75;12.63;;;7.10;99.90;;;8.23;100.00;101576.25;4867669;29;20038;-73
2023/04/08 07:19:46;;;;;;;21.13;11.68;;;7.20;99.90;;;7.98;99.64;101576.38;4847089;29;20120;-73
2023/04/08 07:22:12;;;;;;;22.08;11.27;;;7.20;99.90;;;7.24;100.00;101570.13;4873329;29;20442;-73
2023/04/08 07:24:37;;;;;;;22.00;12.27;;;7.10;99.90;;;7.36;100.00;101581.50;4871220;29;20037;-74
2023/04/08 07:27:03;;;;;;;22.15;12.25;;;6.90;99.90;;;7.27;100.00;101568.94;4875852;29;20045;-78
2023/04/08 07:29:29;;;;;;;22.90;12.38;;;6.90;99.90;;;7.11;100.00;101581.53;4845393;29;20098;-75
2023/04/08 07:31:54;;;;;;;22.52;12.60;;;6.90;99.90;;;6.98;100.00;101587.47;4841956;29;20058;-75
2023/04/08 07:34:20;;;;;;;22.25;12.02;;;6.70;99.90;;;7.30;100.00;101579.47;4839256;29;20078;-73
2023/04/08 07:36:46;;;;;;;24.73;13.20;;;6.80;99.90;;;7.39;100.00;101577.56;4827910;29;20086;-74
2023/04/08 07:39:11;;;;;;;26.00;13.52;;;6.80;99.90;;;7.60;100.00;101586.00;4824027;29;20765;-73
2023/04/08 07:41:37;;;;;;;25.02;13.32;;;6.90;99.90;;;7.69;100.00;101589.53;4837587;29;20030;-73
2023/04/08 07:44:03;;;;;;;22.58;13.02;;;6.90;99.90;;;7.42;100.00;101593.50;4826442;29;20406;-73
2023/04/08 07:46:30;;;;;;;25.77;13.27;;;6.90;99.90;;;7.42;100.00;101598.94;4823040;29;20056;-73
2023/04/08 07:48:56;;;;;;;23.27;12.98;;;6.90;99.90;;;7.47;100.00;101591.13;4837750;29;20077;-75
2023/04/08 07:51:22;;;;;;;20.80;11.77;;;7.00;99.90;;;7.61;100.00;101595.84;4827192;29;20050;-76
2023/04/08 07:53:47;;;;;;;23.23;12.38;;;7.10;99.90;;;7.59;100.00;101600.59;4832212;29;20148;-75
2023/04/08 07:56:15;;;;;;;23.33;13.20;;;7.10;99.90;;;7.52;100.00;101594.19;4828345;29;20037;-76
2023/04/08 07:58:41;;;;;;;23.10;12.90;;;7.10;99.90;;;7.73;100.00;101584.63;4838892;29;20041;-75
2023/04/08 08:01:21;;;;;;;25.42;13.55;;;7.20;99.90;;;7.39;100.00;101605.56;4827295;29;20113;-75
2023/04/08 08:03:49;;;;;;;24.42;12.63;;;7.10;99.90;;;7.92;100.00;101610.53;4836411;29;20042;-75
2023/04/08 08:06:15;;;;;;;22.52;12.32;;;7.20;99.90;;;8.23;100.00;101595.28;4836209;29;20038;-75
2023/04/08 08:08:41;;;;;;;24.65;13.00;;;7.40;99.90;;;8.18;100.00;101606.69;4841171;29;20046;-74
2023/04/08 08:11:07;;;;;;;23.05;12.50;;;7.40;99.90;;;8.26;100.00;101606.63;4833556;29;20030;-74
2023/04/08 08:13:33;;;;;;;23.08;13.50;;;7.50;99.90;;;8.40;100.00;101615.06;4821597;29;20062;-76
2023/04/08 08:15:59;;;;;;;23.15;12.75;;;7.60;99.90;;;8.34;99.12;101597.59;4837148;29;20095;-75
2023/04/08 08:18:25;;;;;;;24.40;13.48;;;7.50;99.90;;;8.36;99.20;101620.00;4834883;29;20436;-75
2023/04/08 08:20:51;;;;;;;25.23;13.65;;;7.50;99.90;;;8.43;98.98;101617.44;4832975;29;20090;-76
2023/04/08 08:23:17;;;;;;;26.75;13.98;;;7.50;99.90;;;8.48;98.40;101626.72;4834909;29;20037;-76
2023/04/08 08:25:43;;;;;;;25.30;13.73;;;7.60;99.90;;;8.63;97.69;101618.69;4839233;29;20569;-75
2023/04/08 08:28:08;;;;;;;22.33;12.95;;;7.70;99.90;;;8.84;96.37;101629.94;4838809;29;20046;-75
2023/04/08 08:30:34;;;;;;;23.40;13.10;;;7.90;99.90;;;8.91;95.70;101628.19;4852132;29;20048;-75
2023/04/08 08:33:01;;;;;;;23.30;13.50;;;8.00;99.90;;;8.81;95.69;101631.13;4879061;29;20045;-75
2023/04/08 08:35:27;;;;;;;24.27;13.65;;;8.00;99.90;;;9.18;94.98;101628.66;4863452;29;20094;-75
2023/04/08 08:37:53;;;;;;;24.83;12.98;;;8.20;99.90;;;9.37;93.70;101627.28;4877967;29;20462;-75
2023/04/08 08:40:18;;;;;;;27.13;14.55;;;8.30;99.90;;;8.94;94.38;101635.16;4869253;29;20037;-75
2023/04/08 08:42:51;;;;;;;25.02;13.95;;;8.30;99.90;;;9.13;95.17;101629.19;4866249;29;20037;-75
2023/04/08 08:45:20;;;;;;;26.75;13.45;;;8.30;99.90;;;9.19;93.66;101616.72;4868161;29;20033;-75
2023/04/08 08:47:48;;;;;;;27.08;14.45;;;8.30;99.90;;;8.98;92.64;101618.25;4870596;29;20060;-75
2023/04/08 08:50:14;;;;;;;26.65;13.73;;;8.30;99.90;;;9.05;93.00;101632.84;4836742;29;20044;-74
2023/04/08 08:52:48;;;;;;;28.77;14.48;;;8.20;99.90;;;9.09;93.32;101636.03;4851346;29;20041;-74
2023/04/08 08:55:16;;;;;;;24.88;13.77;;;8.20;99.90;;;9.17;92.76;101638.72;4870045;29;20511;-76
2023/04/08 08:57:42;;;;;;;24.55;13.05;;;8.40;99.90;;;9.04;92.92;101619.41;4870437;29;20052;-75
2023/04/08 09:00:12;;;;;;;25.80;12.65;;;8.40;99.90;;;9.24;92.79;101643.41;4872880;29;20045;-75
2023/04/08 09:02:38;;;;;;;24.70;12.43;;;8.50;99.90;;;9.50;91.31;101651.16;4870483;29;20124;-75
2023/04/08 09:05:04;;;;;;;26.63;13.40;;;8.60;99.90;;;9.51;90.57;101652.84;4872505;29;20607;-75
2023/04/08 09:07:35;;;;;;;24.70;12.85;;;8.70;99.90;;;9.07;92.26;101649.84;4875265;29;20093;-75
2023/04/08 09:10:01;;;;;;;22.98;12.70;;;8.50;99.90;;;9.25;92.54;101656.81;4876568;29;20056;-75
2023/04/08 09:12:27;;;;;;;22.63;13.02;;;8.50;99.90;;;9.29;92.40;101658.19;4865561;29;20030;-75
2023/04/08 09:15:07;;;;;;;28.10;13.32;;;8.50;99.90;;;9.27;91.98;101660.22;4867142;29;20045;-76
2023/04/08 09:17:38;;;;;;;24.85;12.40;;;8.50;99.90;;;9.32;91.24;101665.97;4871019;29;20041;-75
2023/04/08 09:20:08;;;;;;;26.80;12.65;;;8.50;99.90;;;9.52;90.62;101668.16;4877416;29;20040;-76
2023/04/08 09:22:54;;;;;;;25.67;14.00;;;8.50;99.90;;;9.32;91.20;101668.69;4873542;29;20041;-75
2023/04/08 09:25:32;;;;;;;23.65;12.70;;;8.50;99.90;;;9.22;91.36;101681.69;4856940;29;20048;-76
2023/04/08 09:27:58;;;;;;;24.42;12.82;;;8.50;99.90;;;9.24;92.19;101668.75;4844956;29;20037;-76
2023/04/08 09:30:26;;;;;;;24.10;12.85;;;8.50;99.90;;;9.30;91.74;101680.78;4873413;29;20115;-75
2023/04/08 09:32:56;;;;;;;23.98;13.00;;;8.50;99.90;;;9.33;91.47;101680.41;4877933;29;20063;-75
2023/04/08 09:35:24;;;;;;;25.33;13.43;;;8.50;99.90;;;9.23;91.32;101656.16;4866524;29;20041;-76
2023/04/08 09:37:50;;;;;;;28.30;13.57;;;8.50;99.90;;;9.09;92.43;101681.47;4873175;29;20033;-75
2023/04/08 09:40:17;;;;;;;27.80;13.32;;;8.40;99.90;;;9.38;92.11;101679.88;4851861;29;20048;-76
2023/04/08 09:42:49;;;;;;;24.58;13.35;;;8.60;99.90;;;9.35;91.36;101648.41;4877442;29;20044;-75
2023/04/08 09:45:17;;;;;;;24.35;12.63;;;8.70;99.90;;;9.64;90.45;101691.22;4866970;29;20545;-75
2023/04/08 09:48:00;;;;;;;25.40;13.70;;;8.80;99.90;;;9.90;88.81;101686.34;4864702;29;20064;-75
2023/04/08 09:50:38;;;;;;;25.48;14.32;;;9.00;99.90;;;9.79;88.16;101671.28;4868383;29;20041;-75
2023/04/08 09:53:18;;;;;;;27.73;14.32;;;9.00;99.90;;;9.94;88.09;101679.47;4841266;29;20041;-75
2023/04/08 09:55:54;;;;;;;25.70;13.25;;;9.10;99.90;;;10.25;86.97;101685.78;4877417;29;20124;-74
2023/04/08 09:58:27;;;;;;;22.75;13.02;;;9.30;99.90;;;10.16;86.28;101698.66;4872127;29;20041;-75
2023/04/08 10:00:54;;;;;;;24.63;13.40;;;9.40;99.90;;;9.86;86.91;101680.44;4850566;29;20098;-75
2023/04/08 10:03:32;;;;;;;25.27;12.67;;;9.30;99.90;;;8.94;91.32;101692.31;4868679;29;20478;-74
2023/04/08 10:06:02;;;;;;;25.50;12.90;;;8.90;99.90;;;8.98;93.12;101697.19;4849663;29;20045;-74
2023/04/08 10:08:30;;;;;;;26.15;13.60;;;8.80;99.90;;;9.25;92.33;101685.94;4850118;29;20037;-75
2023/04/08 10:10:56;;;;;;;;;;;8.80;99.90;;;8.91;93.16;101686.19;4857891;29;20040;-74
2023/04/08 10:13:27;;;;;;;27.23;13.00;;;8.70;99.90;;;9.32;93.48;101692.34;4876976;29;20406;-75